Home   Weather   USA   Roanoke Rapids   Past weeks
Flag for USA

Past Weather in Roanoke Rapids, North Carolina, USA — Yesterday and Last 2 Weeks

Currently: 78 °F. Clear. (Weather station: Emporia-Greensville Regional Airport, USA). See more current weather

Past Weather in Roanoke Rapids — Graph

°F

Roanoke Rapids Temperature Yesterday

Maximum temperature yesterday: 92 °F (at 3:35 pm)
Minimum temperature yesterday: 69 °F (at 1:35 am)
Average temperature yesterday: 80 °F

High & Low Weather Summary for the Past Weeks

 TemperatureHumidityPressure
High92 °F (Jun 19, 3:35 pm)100% (Jun 5, 12:55 am)30.19 "Hg (Jun 5, 12:55 am)
Low52 °F (Jun 18, 5:15 am)32% (Jun 17, 6:15 pm)29.73 "Hg (Jun 11, 5:15 pm)
Average74 °F77%29.98 "Hg
* Reported Jun 4 11:15 pm — Jun 19 11:15 pm, Roanoke Rapids. Weather by CustomWeather, © 2021

Note: Actual official high and low records may vary slightly from our data, if they occured in-between our weather recording intervals... More about our weather records

Roanoke Rapids Weather History for the Previous 24 Hours

Scroll right to see more
 ConditionsComfort  
Time TempWeatherWind HumidityBarometerVisibility
11:15 pm
Sat, Jun 19
77 °FClear.5 mph73%29.90 "Hg10 mi
10:55 pm77 °FClear.No wind74%29.90 "Hg10 mi
10:35 pm75 °FClear.No wind81%29.90 "Hg10 mi
10:15 pm77 °FClear.No wind77%29.89 "Hg10 mi
9:35 pm76 °FClear.No wind79%29.88 "Hg10 mi
9:15 pm80 °FClear.No wind68%29.88 "Hg10 mi
8:15 pm84 °FSunny.No wind60%29.87 "Hg10 mi
7:55 pm84 °FSunny.No wind58%29.87 "Hg10 mi
7:15 pm86 °FSunny.3 mph54%29.87 "Hg10 mi
6:55 pm87 °FSunny.3 mph54%29.87 "Hg10 mi
6:35 pm88 °FSunny.No wind51%29.86 "Hg10 mi
6:15 pm88 °FSunny.3 mph49%29.86 "Hg10 mi
5:55 pm88 °FSunny.7 mph47%29.86 "Hg10 mi
5:35 pm89 °FSunny.8 mph45%29.87 "Hg10 mi
5:15 pm90 °FSunny.10 mph44%29.87 "Hg10 mi
4:55 pm90 °FScattered clouds.12 mph45%29.87 "Hg10 mi
4:35 pm91 °FScattered clouds.7 mph45%29.88 "Hg10 mi
4:15 pm90 °FPartly sunny.10 mph46%29.89 "Hg10 mi
3:35 pm92 °FScattered clouds.12 mph43%29.90 "Hg10 mi
3:15 pm91 °FSunny.9 mph43%29.89 "Hg10 mi
2:55 pm90 °FScattered clouds.8 mph44%29.90 "Hg10 mi
2:35 pm91 °FSunny.10 mph44%29.91 "Hg10 mi
2:15 pm90 °FSunny.10 mph47%29.92 "Hg10 mi
1:55 pm90 °FSunny.12 mph47%29.92 "Hg10 mi
1:35 pm89 °FSunny.12 mph49%29.92 "Hg10 mi
12:55 pm88 °FSunny.9 mph51%29.92 "Hg10 mi
12:35 pm87 °FSunny.9 mph52%29.93 "Hg10 mi
12:15 pm87 °FSunny.14 mph53%29.94 "Hg10 mi
11:55 am86 °FSunny.12 mph54%29.95 "Hg10 mi
11:35 am86 °FSunny.9 mph55%29.95 "Hg10 mi
11:15 am85 °FSunny.12 mph55%29.95 "Hg10 mi
10:55 am85 °FSunny.10 mph59%29.94 "Hg10 mi
10:35 am83 °FSunny.12 mph60%29.94 "Hg10 mi
10:15 am82 °FSunny.10 mph61%29.94 "Hg10 mi
9:55 am82 °FSunny.9 mph62%29.94 "Hg10 mi
9:35 am80 °FSunny.8 mph65%29.94 "Hg10 mi
9:15 am79 °FSunny.N/A69%29.95 "Hg10 mi
8:55 am77 °FSunny.7 mph72%29.95 "Hg10 mi
8:35 am76 °FSunny.7 mph74%29.95 "Hg10 mi
8:15 am74 °FSunny.8 mph76%29.94 "Hg10 mi
7:55 am74 °FSunny.10 mph76%29.93 "Hg10 mi
7:35 am74 °FSunny.8 mph76%29.94 "Hg10 mi
7:15 am72 °FSunny.8 mph77%29.94 "Hg10 mi
6:55 am72 °FSunny.8 mph77%29.93 "Hg10 mi
6:35 am72 °FSunny.8 mph76%29.92 "Hg10 mi
6:15 am72 °FSunny.8 mph77%29.92 "Hg10 mi
5:55 am71 °FSunny.8 mph78%29.92 "Hg10 mi
5:15 am70 °FClear.6 mph80%29.94 "Hg10 mi
4:55 am70 °FClear.5 mph81%29.94 "Hg10 mi
4:35 am69 °FClear.5 mph82%29.95 "Hg10 mi
4:15 am70 °FClear.5 mph81%29.95 "Hg10 mi
3:35 am70 °FClear.5 mph82%29.96 "Hg10 mi
3:15 am70 °FClear.3 mph81%29.95 "Hg10 mi
2:55 am69 °FClear.5 mph82%29.96 "Hg10 mi
2:15 am70 °FClear.No wind79%29.98 "Hg10 mi
1:55 am69 °FClear.5 mph80%29.98 "Hg10 mi
1:35 am69 °FClear.3 mph79%29.99 "Hg10 mi
1:15 am70 °FClear.3 mph77%30.00 "Hg10 mi
12:55 am70 °FClear.3 mph75%30.00 "Hg10 mi
12:35 am71 °FClear.3 mph72%30.00 "Hg5 mi
12:15 am71 °FDense fog.5 mph71%30.00 "Hg1 mi
Weather by CustomWeather, © 2021

See weather overview